createdAt,value
2022-12-08T00:02:36.819Z,65.02
2022-12-08T00:05:27.960Z,65.13
2022-12-08T00:08:18.528Z,65.09
2022-12-08T00:10:50.897Z,64.98
2022-12-08T00:13:23.201Z,64.99
2022-12-08T00:16:00.796Z,65.18
2022-12-08T00:18:32.964Z,65.19
2022-12-08T00:21:06.255Z,65.18
2022-12-08T00:23:38.629Z,65.30
2022-12-08T00:26:10.896Z,65.42
2022-12-08T00:28:43.780Z,65.56
2022-12-08T00:31:15.797Z,65.47
2022-12-08T00:33:48.012Z,65.44
2022-12-08T00:36:20.204Z,65.30
2022-12-08T00:38:52.551Z,65.15
2022-12-08T00:41:40.490Z,65.31
2022-12-08T00:44:14.193Z,65.27
2022-12-08T00:46:47.177Z,65.34
2022-12-08T00:49:20.780Z,65.14
2022-12-08T00:51:53.047Z,65.07
2022-12-08T00:54:25.940Z,65.03
2022-12-08T00:56:58.099Z,65.25
2022-12-08T00:59:30.473Z,65.18
2022-12-08T01:02:02.551Z,65.30
2022-12-08T01:04:35.011Z,65.42
2022-12-08T01:07:07.693Z,65.49
2022-12-08T01:09:39.857Z,65.50
2022-12-08T01:12:12.536Z,65.61
2022-12-08T01:14:44.906Z,65.38
2022-12-08T01:17:17.386Z,65.37
2022-12-08T01:19:49.550Z,65.34
2022-12-08T01:22:21.924Z,65.39
2022-12-08T01:24:54.089Z,65.55
2022-12-08T01:27:26.052Z,65.77
2022-12-08T01:29:58.018Z,65.60
2022-12-08T01:32:30.078Z,65.86
2022-12-08T01:35:02.961Z,65.83
2022-12-08T01:37:35.642Z,65.94
2022-12-08T01:40:10.691Z,65.90
2022-12-08T01:42:43.274Z,66.09
2022-12-08T01:45:22.897Z,65.95
2022-12-08T01:47:59.246Z,66.00
2022-12-08T01:50:32.553Z,65.91
2022-12-08T01:53:11.070Z,65.77
2022-12-08T01:55:45.951Z,65.58
2022-12-08T01:58:22.164Z,65.45
2022-12-08T02:00:55.230Z,65.38
2022-12-08T02:03:32.644Z,65.11
2022-12-08T02:06:05.367Z,64.94
2022-12-08T02:08:40.666Z,64.46
2022-12-08T02:11:14.076Z,64.68
2022-12-08T02:13:49.196Z,64.40
2022-12-08T02:16:34.672Z,64.25
2022-12-08T02:19:32.810Z,64.01
2022-12-08T02:22:12.595Z,63.66
2022-12-08T02:24:55.908Z,63.87
2022-12-08T02:27:49.329Z,64.08
2022-12-08T02:30:28.397Z,63.94
2022-12-08T02:33:29.056Z,64.57
2022-12-08T02:36:06.579Z,64.33
2022-12-08T02:38:53.872Z,64.39
2022-12-08T02:41:39.656Z,64.52
2022-12-08T02:44:19.301Z,64.82
2022-12-08T02:46:55.969Z,65.02
2022-12-08T02:49:32.553Z,65.52
2022-12-08T02:52:47.818Z,65.50
2022-12-08T02:55:29.919Z,65.55
2022-12-08T02:58:23.895Z,65.23
2022-12-08T03:01:12.202Z,64.88
2022-12-08T03:03:58.618Z,65.31
2022-12-08T03:06:36.751Z,65.36
2022-12-08T03:09:17.109Z,65.38
2022-12-08T03:11:55.832Z,65.34
2022-12-08T03:14:29.740Z,65.50
2022-12-08T03:17:03.852Z,65.02
2022-12-08T03:19:40.625Z,65.18
2022-12-08T03:22:15.049Z,65.17
2022-12-08T03:24:48.249Z,65.32
2022-12-08T03:27:22.165Z,65.50
2022-12-08T03:29:58.716Z,65.38
2022-12-08T03:32:36.005Z,65.41
2022-12-08T03:35:12.676Z,65.36
2022-12-08T03:37:45.460Z,65.38
2022-12-08T03:40:21.107Z,65.55
2022-12-08T03:42:53.788Z,65.23
2022-12-08T03:45:26.057Z,64.98
2022-12-08T03:47:58.531Z,64.75
2022-12-08T03:50:30.696Z,64.53
2022-12-08T03:53:02.763Z,64.33
2022-12-08T03:55:35.238Z,64.25
2022-12-08T03:58:07.839Z,64.12
2022-12-08T04:00:41.927Z,64.32
2022-12-08T04:03:14.246Z,64.22
2022-12-08T04:05:46.364Z,63.93
2022-12-08T04:08:18.672Z,63.79
2022-12-08T04:10:51.350Z,63.98
2022-12-08T04:13:23.592Z,63.87
2022-12-08T04:15:56.000Z,63.98
2022-12-08T04:18:28.043Z,63.90
2022-12-08T04:21:00.185Z,63.60
2022-12-08T04:23:32.658Z,63.86
2022-12-08T04:26:04.724Z,63.69
2022-12-08T04:28:37.198Z,63.71
2022-12-08T04:31:10.880Z,63.73
2022-12-08T04:33:43.438Z,63.59
2022-12-08T04:36:15.750Z,63.52
2022-12-08T04:38:47.918Z,63.51
2022-12-08T04:41:20.084Z,63.53
2022-12-08T04:43:52.248Z,63.62
2022-12-08T04:46:24.255Z,63.31
2022-12-08T04:48:56.480Z,63.53
2022-12-08T04:51:28.648Z,63.46
2022-12-08T04:54:00.816Z,63.42
2022-12-08T04:56:32.882Z,63.50
2022-12-08T04:59:05.355Z,63.73
2022-12-08T05:01:38.059Z,63.78
2022-12-08T05:04:10.610Z,63.72
2022-12-08T05:06:42.780Z,63.69
2022-12-08T05:09:15.558Z,63.60
2022-12-08T05:11:49.287Z,63.63
2022-12-08T05:14:21.942Z,63.66
2022-12-08T05:16:54.210Z,63.55
2022-12-08T05:19:26.797Z,63.65
2022-12-08T05:21:58.960Z,63.62
2022-12-08T05:24:31.139Z,63.55
2022-12-08T05:27:03.804Z,63.61
2022-12-08T05:29:35.969Z,63.66
2022-12-08T05:32:09.133Z,63.57
2022-12-08T05:34:41.532Z,63.48
2022-12-08T05:37:13.943Z,63.34
2022-12-08T05:39:46.276Z,63.47
2022-12-08T05:42:24.385Z,63.37
2022-12-08T05:44:57.060Z,63.42
2022-12-08T05:47:34.460Z,63.46
2022-12-08T05:50:10.029Z,63.44
2022-12-08T05:52:42.166Z,63.24
2022-12-08T05:55:14.643Z,63.32
2022-12-08T05:57:46.909Z,63.39
2022-12-08T06:00:21.133Z,63.54
2022-12-08T06:02:54.039Z,63.39
2022-12-08T06:05:26.586Z,63.36
2022-12-08T06:07:58.747Z,63.42
2022-12-08T06:10:31.128Z,63.42
2022-12-08T06:13:03.505Z,63.35
2022-12-08T06:15:36.792Z,63.21
2022-12-08T06:18:11.106Z,63.47
2022-12-08T06:20:43.175Z,63.73
2022-12-08T06:23:15.236Z,64.03
2022-12-08T06:25:47.607Z,64.29
2022-12-08T06:28:19.878Z,64.22
2022-12-08T06:30:52.667Z,64.19
2022-12-08T06:33:25.239Z,64.14
2022-12-08T06:36:00.080Z,64.23
2022-12-08T06:38:32.849Z,64.48
2022-12-08T06:41:05.950Z,64.25
2022-12-08T06:43:38.213Z,64.31
2022-12-08T06:46:13.547Z,64.28
2022-12-08T06:48:46.842Z,64.14
2022-12-08T06:51:23.009Z,64.06
2022-12-08T06:53:55.784Z,63.89
2022-12-08T06:56:30.411Z,64.00
2022-12-08T06:59:02.885Z,64.08
2022-12-08T07:01:35.146Z,64.17
2022-12-08T07:04:08.040Z,64.14
2022-12-08T07:06:40.615Z,64.27
2022-12-08T07:09:12.827Z,64.34
2022-12-08T07:11:44.968Z,64.15
2022-12-08T07:14:25.043Z,64.31
2022-12-08T07:16:59.054Z,64.14
2022-12-08T07:19:31.209Z,64.29
2022-12-08T07:22:03.962Z,64.24
2022-12-08T07:24:36.130Z,64.54
2022-12-08T07:27:08.181Z,64.78
2022-12-08T07:29:40.262Z,65.03
2022-12-08T07:32:12.323Z,65.06
2022-12-08T07:34:47.032Z,65.25
2022-12-08T07:37:20.031Z,65.19
2022-12-08T07:39:53.025Z,65.29
2022-12-08T07:42:25.597Z,65.05
2022-12-08T07:44:58.151Z,64.95
2022-12-08T07:47:30.246Z,64.89
2022-12-08T07:50:02.623Z,64.84
2022-12-08T07:52:36.734Z,64.76
2022-12-08T07:55:10.770Z,64.70
2022-12-08T07:57:42.905Z,64.51
2022-12-08T08:00:17.354Z,64.33
2022-12-08T08:02:49.947Z,64.20
2022-12-08T08:05:23.500Z,64.07
2022-12-08T08:07:55.551Z,64.28
2022-12-08T08:10:29.682Z,64.58
2022-12-08T08:13:03.951Z,64.35
2022-12-08T08:15:36.605Z,64.32
2022-12-08T08:18:09.152Z,64.12
2022-12-08T08:20:41.831Z,64.04
2022-12-08T08:23:13.895Z,64.12
2022-12-08T08:25:45.961Z,63.72
2022-12-08T08:28:18.176Z,63.79
2022-12-08T08:30:50.265Z,63.72
2022-12-08T08:33:22.867Z,63.87
2022-12-08T08:35:55.244Z,63.89
2022-12-08T08:38:29.566Z,64.11
2022-12-08T08:41:03.071Z,63.87
2022-12-08T08:43:38.621Z,64.17
2022-12-08T08:46:11.454Z,64.12
2022-12-08T08:48:43.729Z,64.07
2022-12-08T08:51:17.119Z,64.43
2022-12-08T08:53:51.678Z,64.81
2022-12-08T08:56:24.867Z,65.07
2022-12-08T08:58:57.850Z,65.09
2022-12-08T09:01:31.679Z,65.01
2022-12-08T09:04:03.966Z,64.98
2022-12-08T09:06:36.010Z,65.14
2022-12-08T09:09:08.364Z,65.13
2022-12-08T09:11:40.431Z,64.84
2022-12-08T09:14:14.783Z,64.10
2022-12-08T09:16:47.375Z,64.43
2022-12-08T09:19:19.591Z,64.36
2022-12-08T09:21:52.171Z,64.54
2022-12-08T09:24:24.337Z,64.67
2022-12-08T09:26:56.299Z,64.27
2022-12-08T09:29:34.001Z,64.39
2022-12-08T09:32:08.961Z,64.16
2022-12-08T09:34:41.199Z,63.83
2022-12-08T09:37:14.729Z,63.81
2022-12-08T09:39:47.990Z,63.85
2022-12-08T09:42:33.575Z,63.77
2022-12-08T09:45:11.118Z,63.70
2022-12-08T09:47:48.963Z,63.57
2022-12-08T09:50:31.186Z,63.64
2022-12-08T09:53:04.847Z,63.44
2022-12-08T09:55:46.047Z,63.66
2022-12-08T09:58:26.717Z,63.55
2022-12-08T10:00:58.802Z,63.37
2022-12-08T10:03:32.959Z,63.29
2022-12-08T10:06:13.926Z,63.32
2022-12-08T10:08:50.328Z,63.12
2022-12-08T10:11:29.363Z,63.07
2022-12-08T10:14:12.793Z,62.95
2022-12-08T10:16:49.708Z,63.47
2022-12-08T10:19:24.399Z,63.37
2022-12-08T10:21:58.105Z,63.50
2022-12-08T10:24:37.440Z,62.91
2022-12-08T10:27:14.417Z,62.83
2022-12-08T10:29:46.987Z,62.65
2022-12-08T10:32:23.061Z,62.49
2022-12-08T10:35:08.591Z,62.41
2022-12-08T10:37:41.118Z,61.93
2022-12-08T10:40:18.504Z,61.97
2022-12-08T10:42:54.658Z,61.98
2022-12-08T10:45:29.454Z,61.63
2022-12-08T10:48:05.655Z,61.63
2022-12-08T10:50:37.728Z,61.41
2022-12-08T10:53:17.376Z,61.48
2022-12-08T10:55:51.675Z,61.44
2022-12-08T10:58:35.614Z,61.85
2022-12-08T11:01:12.500Z,61.82
2022-12-08T11:03:50.088Z,61.74
2022-12-08T11:06:24.814Z,61.90
2022-12-08T11:08:59.646Z,61.75
2022-12-08T11:11:46.968Z,61.84
2022-12-08T11:14:25.176Z,61.84
2022-12-08T11:17:04.961Z,61.77
2022-12-08T11:19:41.902Z,61.77
2022-12-08T11:22:26.560Z,61.97
2022-12-08T11:25:11.639Z,61.89
2022-12-08T11:27:45.129Z,61.87
2022-12-08T11:30:20.555Z,62.02
2022-12-08T11:32:55.710Z,62.11
2022-12-08T11:35:31.500Z,62.24
2022-12-08T11:38:21.732Z,62.13
2022-12-08T11:40:57.004Z,62.27
2022-12-08T11:43:40.938Z,62.13
2022-12-08T11:46:18.971Z,62.26
2022-12-08T11:48:54.796Z,62.16
2022-12-08T11:51:34.338Z,62.07
2022-12-08T11:54:24.117Z,61.70
2022-12-08T11:57:00.015Z,62.11
2022-12-08T11:59:36.025Z,61.94
2022-12-08T12:02:07.764Z,61.92
2022-12-08T12:04:44.763Z,61.96
2022-12-08T12:07:37.340Z,62.04
2022-12-08T12:10:26.780Z,61.98
2022-12-08T12:13:14.514Z,62.43
2022-12-08T12:16:32.384Z,62.93
2022-12-08T12:19:10.455Z,62.63
2022-12-08T12:21:46.001Z,63.23
2022-12-08T12:24:26.554Z,63.57
2022-12-08T12:27:08.257Z,63.97
2022-12-08T12:29:50.890Z,64.37
2022-12-08T12:32:27.442Z,64.34
2022-12-08T12:35:02.873Z,64.28
2022-12-08T12:37:43.246Z,64.08
2022-12-08T12:40:23.000Z,63.70
2022-12-08T12:43:15.386Z,63.78
2022-12-08T12:45:47.529Z,63.31
2022-12-08T12:48:29.201Z,63.72
2022-12-08T12:51:01.661Z,63.67
2022-12-08T12:53:53.644Z,63.84
2022-12-08T12:56:50.765Z,64.04
2022-12-08T12:59:51.613Z,63.71
2022-12-08T13:02:30.925Z,63.55
2022-12-08T13:05:09.730Z,63.65
2022-12-08T13:07:51.273Z,63.89
2022-12-08T13:10:27.507Z,63.91
2022-12-08T13:13:20.343Z,64.00
2022-12-08T13:15:54.558Z,64.22
2022-12-08T13:18:30.923Z,64.26
2022-12-08T13:21:12.696Z,64.49
2022-12-08T13:23:49.258Z,64.68
2022-12-08T13:26:25.085Z,64.93
2022-12-08T13:29:18.502Z,65.05
2022-12-08T13:31:53.743Z,65.21
2022-12-08T13:34:39.530Z,65.23
2022-12-08T13:37:26.962Z,65.15
2022-12-08T13:40:03.876Z,65.26
2022-12-08T13:42:43.514Z,64.98
2022-12-08T13:45:48.698Z,64.85
2022-12-08T13:48:30.539Z,64.70
2022-12-08T13:57:25.824Z,64.91
2022-12-08T14:00:03.407Z,64.90
2022-12-08T14:02:48.596Z,65.20
2022-12-08T14:05:47.725Z,64.83
2022-12-08T14:08:58.958Z,65.28
2022-12-08T14:11:34.972Z,65.51
2022-12-08T14:14:10.959Z,66.00
2022-12-08T14:16:44.956Z,65.95
2022-12-08T14:19:22.425Z,65.84
2022-12-08T14:22:00.604Z,66.06
2022-12-08T14:24:34.001Z,65.92
2022-12-08T14:27:10.496Z,66.02
2022-12-08T14:29:47.998Z,66.16
2022-12-08T14:32:30.330Z,66.83
2022-12-08T14:35:14.851Z,67.38
2022-12-08T14:37:50.254Z,67.39
2022-12-08T14:40:26.557Z,67.34
2022-12-08T14:43:07.456Z,67.40
2022-12-08T14:45:47.140Z,67.14
2022-12-08T14:48:26.870Z,67.13
2022-12-08T14:51:05.847Z,66.96
2022-12-08T14:53:43.702Z,66.66
2022-12-08T14:56:24.252Z,66.81
2022-12-08T14:59:09.175Z,66.43
2022-12-08T15:01:42.305Z,66.55
2022-12-08T15:04:20.393Z,66.46
2022-12-08T15:07:00.422Z,66.70
2022-12-08T15:09:37.297Z,66.84
2022-12-08T15:12:26.781Z,66.34
2022-12-08T15:15:03.347Z,66.64
2022-12-08T15:17:42.985Z,66.99
2022-12-08T15:23:29.512Z,67.06
2022-12-08T15:26:01.785Z,67.80
2022-12-08T15:28:34.352Z,67.45
2022-12-08T15:31:06.549Z,67.28
2022-12-08T15:33:38.791Z,68.29
2022-12-08T15:36:11.807Z,68.32
2022-12-08T15:38:44.679Z,68.51
2022-12-08T15:41:17.043Z,68.85
2022-12-08T15:43:50.015Z,69.03
2022-12-08T15:46:22.266Z,68.74
2022-12-08T15:48:58.092Z,68.83
2022-12-08T15:51:31.110Z,68.85
2022-12-08T15:54:03.525Z,68.53
2022-12-08T15:56:41.205Z,68.17
2022-12-08T15:59:28.422Z,68.39
2022-12-08T16:02:00.571Z,67.98
2022-12-08T16:05:33.513Z,67.64
2022-12-08T16:07:28.344Z,68.00
2022-12-08T16:10:00.572Z,67.65
2022-12-08T16:13:54.876Z,68.08
2022-12-08T16:15:59.791Z,67.95
2022-12-08T16:18:37.152Z,67.59
2022-12-08T16:21:53.334Z,67.47
2022-12-08T16:24:03.301Z,67.82
2022-12-08T16:27:58.035Z,67.39
2022-12-08T16:29:30.471Z,67.63
2022-12-08T16:32:02.609Z,67.37
2022-12-08T16:34:34.697Z,67.59
2022-12-08T16:37:07.076Z,67.52
2022-12-08T16:39:45.427Z,67.83
2022-12-08T16:42:39.254Z,67.99
2022-12-08T16:45:14.064Z,68.17
2022-12-08T16:47:49.389Z,68.24
2022-12-08T16:50:23.856Z,68.24
2022-12-08T16:53:00.415Z,68.10
2022-12-08T16:55:32.891Z,67.82
2022-12-08T16:58:05.060Z,67.51
2022-12-08T17:00:37.551Z,67.37
2022-12-08T17:03:10.420Z,67.21
2022-12-08T17:05:43.709Z,66.87
2022-12-08T17:08:16.181Z,66.90
2022-12-08T17:11:07.434Z,67.05
2022-12-08T17:13:42.435Z,67.07
2022-12-08T17:16:19.368Z,67.08
2022-12-08T17:18:53.728Z,68.20
2022-12-08T17:21:25.898Z,68.00
2022-12-08T17:23:58.167Z,67.61
2022-12-08T17:26:30.436Z,67.58
2022-12-08T17:29:04.517Z,68.47
2022-12-08T17:31:36.850Z,68.09
2022-12-08T17:34:11.312Z,68.02
2022-12-08T17:36:43.919Z,68.10
2022-12-08T17:39:18.618Z,67.97
2022-12-08T17:41:51.429Z,68.19
2022-12-08T17:44:24.004Z,67.74
2022-12-08T17:46:56.293Z,67.99
2022-12-08T17:49:31.203Z,67.86
2022-12-08T17:52:06.836Z,67.75
2022-12-08T17:54:39.327Z,67.95
2022-12-08T17:57:11.811Z,68.52
2022-12-08T17:59:44.174Z,68.34
2022-12-08T18:02:16.386Z,68.55
2022-12-08T18:04:49.125Z,68.42
2022-12-08T18:07:21.393Z,68.33
2022-12-08T18:09:53.829Z,68.31
2022-12-08T18:12:26.342Z,67.94
2022-12-08T18:14:58.509Z,67.67
2022-12-08T18:17:30.679Z,67.36
2022-12-08T18:20:03.084Z,67.66
2022-12-08T18:22:35.668Z,67.90
2022-12-08T18:25:09.528Z,68.06
2022-12-08T18:27:43.323Z,67.98
2022-12-08T18:30:18.931Z,67.79
2022-12-08T18:32:57.101Z,67.59
2022-12-08T18:35:30.184Z,67.49
2022-12-08T18:38:02.559Z,67.48
2022-12-08T18:40:35.441Z,67.17
2022-12-08T18:43:07.711Z,67.31
2022-12-08T18:45:40.062Z,67.33
2022-12-08T18:48:14.612Z,67.28
2022-12-08T18:50:49.127Z,67.00
2022-12-08T18:53:22.461Z,67.22
2022-12-08T18:55:54.688Z,67.41
2022-12-08T18:58:26.755Z,67.66
2022-12-08T19:00:59.429Z,67.60
2022-12-08T19:03:31.932Z,67.53
2022-12-08T19:06:08.901Z,67.50
2022-12-08T19:08:41.115Z,67.42
2022-12-08T19:11:22.647Z,67.23
2022-12-08T19:13:56.294Z,67.36
2022-12-08T19:16:30.695Z,67.01
2022-12-08T19:19:02.829Z,66.85
2022-12-08T19:21:44.548Z,66.81
2022-12-08T19:24:18.644Z,66.50
2022-12-08T19:26:51.005Z,66.21
2022-12-08T19:29:23.789Z,66.03
2022-12-08T19:31:56.396Z,65.77
2022-12-08T19:34:29.879Z,65.61
2022-12-08T19:37:02.235Z,65.40
2022-12-08T19:39:52.024Z,64.87
2022-12-08T19:42:41.705Z,64.44
2022-12-08T19:45:18.264Z,64.38
2022-12-08T19:47:51.242Z,64.16
2022-12-08T19:50:39.016Z,64.22
2022-12-08T19:53:14.046Z,63.80
2022-12-08T19:55:46.595Z,63.84
2022-12-08T19:58:19.614Z,64.00
2022-12-08T20:00:51.963Z,63.66
2022-12-08T20:03:25.065Z,63.48
2022-12-08T20:05:57.416Z,63.71
2022-12-08T20:08:30.311Z,63.80
2022-12-08T20:11:02.473Z,63.66
2022-12-08T20:13:46.002Z,63.84
2022-12-08T20:16:19.089Z,63.74
2022-12-08T20:18:51.461Z,63.73
2022-12-08T20:21:24.059Z,63.61
2022-12-08T20:23:56.417Z,63.75
2022-12-08T20:26:28.702Z,63.64
2022-12-08T20:29:00.966Z,63.78
2022-12-08T20:31:35.262Z,63.76
2022-12-08T20:34:07.537Z,63.53
2022-12-08T20:36:42.258Z,63.54
2022-12-08T20:39:16.634Z,63.55
2022-12-08T20:41:49.775Z,63.68
2022-12-08T20:44:21.966Z,63.60
2022-12-08T20:46:54.471Z,63.47
2022-12-08T20:49:31.280Z,63.43
2022-12-08T20:52:07.383Z,63.37
2022-12-08T20:54:40.341Z,63.47
2022-12-08T20:57:12.563Z,63.51
2022-12-08T20:59:45.541Z,63.37
2022-12-08T21:02:18.048Z,63.30
2022-12-08T21:04:50.945Z,63.47
2022-12-08T21:07:23.265Z,63.37
2022-12-08T21:09:55.790Z,63.20
2022-12-08T21:12:28.369Z,63.35
2022-12-08T21:15:00.687Z,63.19
2022-12-08T21:17:33.324Z,63.18
2022-12-08T21:20:06.867Z,63.40
2022-12-08T21:22:41.310Z,63.48
2022-12-08T21:25:13.824Z,63.59
2022-12-08T21:27:46.509Z,63.48
2022-12-08T21:30:19.669Z,63.46
2022-12-08T21:32:52.261Z,63.39
2022-12-08T21:35:24.646Z,63.33
2022-12-08T21:37:57.234Z,63.33
2022-12-08T21:40:29.906Z,63.37
2022-12-08T21:43:03.780Z,63.57
2022-12-08T21:45:36.805Z,63.60
2022-12-08T21:48:11.930Z,63.46
2022-12-08T21:50:44.537Z,63.57
2022-12-08T21:53:17.497Z,63.70
2022-12-08T21:55:50.289Z,63.61
2022-12-08T21:58:23.198Z,63.49
2022-12-08T22:00:55.609Z,63.48
2022-12-08T22:03:28.532Z,63.29
2022-12-08T22:06:04.805Z,63.53
2022-12-08T22:08:38.104Z,63.05
2022-12-08T22:11:12.544Z,63.15
2022-12-08T22:13:45.369Z,63.35
2022-12-08T22:16:17.913Z,63.08
2022-12-08T22:18:50.700Z,63.14
2022-12-08T22:21:23.212Z,63.13
2022-12-08T22:23:55.788Z,63.01
2022-12-08T22:26:28.228Z,63.03
2022-12-08T22:29:00.911Z,62.86
2022-12-08T22:31:33.665Z,63.16
2022-12-08T22:34:06.292Z,63.12
2022-12-08T22:36:38.783Z,62.93
2022-12-08T22:39:12.686Z,63.08
2022-12-08T22:41:45.362Z,62.93
2022-12-08T22:44:17.988Z,63.07
2022-12-08T22:46:50.912Z,62.99
2022-12-08T22:49:24.215Z,62.98
2022-12-08T22:51:56.382Z,62.84
2022-12-08T22:54:28.547Z,63.08
2022-12-08T22:57:00.607Z,62.82
2022-12-08T22:59:33.760Z,63.08
2022-12-08T23:02:06.687Z,62.95
2022-12-08T23:04:39.591Z,63.17
2022-12-08T23:07:12.120Z,63.00
2022-12-08T23:09:44.608Z,63.00
2022-12-08T23:12:17.131Z,63.03
2022-12-08T23:14:49.490Z,63.01
2022-12-08T23:17:22.119Z,63.14
2022-12-08T23:19:54.722Z,63.06
2022-12-08T23:22:26.794Z,62.76
2022-12-08T23:24:58.715Z,62.63
2022-12-08T23:27:30.856Z,62.52
2022-12-08T23:30:03.611Z,62.33
2022-12-08T23:32:36.143Z,62.13
2022-12-08T23:35:10.532Z,62.32
2022-12-08T23:37:43.900Z,62.30
2022-12-08T23:40:17.219Z,62.20
2022-12-08T23:42:50.074Z,62.36
2022-12-08T23:45:22.646Z,62.43
2022-12-08T23:47:55.126Z,62.19
2022-12-08T23:50:27.592Z,62.62
2022-12-08T23:53:00.240Z,62.73
2022-12-08T23:55:32.653Z,62.59
2022-12-08T23:58:04.808Z,62.69
